Time;durP1;ratioP1;P1;durP2;ratioP2;P2;SDS_P1;SDS_P2;PMS_P1;PMS_P2;Temp;Humidity;BMP_temperature;BMP_pressure;BME280_temperature;BME280_humidity;BME280_pressure;Samples;Min_cycle;Max_cycle;Signal;HPM_P1;HPM_P2
2023/12/06 00:00:30;;;;;;;4.63;3.03;;;;;;;3.14;74.69;94373.72;5069311;28;20142;-75
2023/12/06 00:02:55;;;;;;;3.83;2.60;;;;;;;3.13;74.67;94378.03;5069391;28;20065;-75
2023/12/06 00:05:21;;;;;;;4.78;3.33;;;;;;;3.23;74.76;94382.59;5085187;28;20198;-75
2023/12/06 00:07:47;;;;;;;9.85;6.00;;;;;;;3.04;75.16;94350.38;5055849;28;20059;-75
2023/12/06 00:10:12;;;;;;;8.43;5.18;;;;;;;3.14;75.39;94377.13;5069192;28;20035;-76
2023/12/06 00:12:37;;;;;;;8.85;5.13;;;;;;;3.11;75.54;94390.13;5072873;28;20032;-75
2023/12/06 00:15:03;;;;;;;6.63;3.97;;;;;;;3.13;75.21;94388.31;5055534;28;20399;-75
2023/12/06 00:17:29;;;;;;;4.03;2.58;;;;;;;3.25;74.90;94389.31;5089305;28;20440;-75
2023/12/06 00:19:54;;;;;;;6.40;2.55;;;;;;;3.21;75.06;94389.59;5067796;28;20146;-75
2023/12/06 00:22:20;;;;;;;4.85;2.55;;;;;;;3.25;74.83;94391.06;5069088;28;20025;-75
2023/12/06 00:24:45;;;;;;;4.35;2.58;;;;;;;3.20;74.54;94382.81;5103824;28;20410;-76
2023/12/06 00:27:11;;;;;;;4.43;2.88;;;;;;;3.23;74.46;94372.34;5070049;28;20020;-76
2023/12/06 00:29:37;;;;;;;5.40;4.45;;;;;;;3.21;74.92;94379.34;5069870;28;20060;-76
2023/12/06 00:32:02;;;;;;;4.70;2.85;;;;;;;3.16;74.89;94365.94;5081452;28;20024;-75
2023/12/06 00:34:29;;;;;;;4.93;3.30;;;;;;;3.05;75.39;94369.16;5073348;28;20468;-76
2023/12/06 00:36:54;;;;;;;6.28;3.60;;;;;;;2.90;76.06;94373.47;5090169;28;20035;-76
2023/12/06 00:39:20;;;;;;;5.55;3.70;;;;;;;2.96;75.98;94370.53;5073214;28;20028;-75
2023/12/06 00:41:45;;;;;;;6.40;3.47;;;;;;;3.18;75.61;94375.22;5088692;28;20028;-76
2023/12/06 00:44:11;;;;;;;4.38;3.05;;;;;;;3.20;75.47;94363.09;5089956;28;20520;-76
2023/12/06 00:46:36;;;;;;;4.97;3.30;;;;;;;3.27;74.98;94373.81;5090034;28;20056;-75
2023/12/06 00:49:03;;;;;;;5.28;3.28;;;;;;;3.13;75.38;94369.53;5071336;28;20043;-76
2023/12/06 00:51:29;;;;;;;5.20;2.90;;;;;;;3.22;75.28;94360.44;5089818;28;20024;-76
2023/12/06 00:53:54;;;;;;;3.92;2.83;;;;;;;3.16;75.24;94365.94;5089836;28;20032;-76
2023/12/06 00:56:20;;;;;;;5.22;3.05;;;;;;;3.29;75.11;94366.84;5091428;28;20032;-75
2023/12/06 00:58:45;;;;;;;5.53;2.88;;;;;;;3.42;74.74;94360.03;5080985;28;20035;-76
2023/12/06 01:01:12;;;;;;;5.80;3.13;;;;;;;3.34;74.52;94364.81;5069625;28;20075;-76
2023/12/06 01:03:38;;;;;;;4.97;2.97;;;;;;;3.36;74.56;94355.28;5052896;28;20032;-76
2023/12/06 01:06:03;;;;;;;4.00;2.47;;;;;;;3.53;74.12;94355.03;5052765;28;20036;-76
2023/12/06 01:08:29;;;;;;;6.03;3.42;;;;;;;3.39;74.44;94349.94;5082461;28;20551;-75
2023/12/06 01:10:54;;;;;;;8.48;3.75;;;;;;;3.39;74.68;94346.56;5109453;28;20113;-76
2023/12/06 01:13:20;;;;;;;6.55;4.15;;;;;;;3.41;74.71;94348.13;5110052;28;20076;-76
2023/12/06 01:15:45;;;;;;;6.80;4.20;;;;;;;3.38;73.86;94317.50;5109940;28;20406;-75
2023/12/06 01:18:10;;;;;;;5.03;3.20;;;;;;;3.32;74.52;94341.81;5072339;28;20078;-76
2023/12/06 01:20:39;;;;;;;5.47;2.90;;;;;;;3.25;74.73;94334.56;5089605;28;20024;-76
2023/12/06 01:23:05;;;;;;;5.63;2.88;;;;;;;3.40;74.58;94338.78;5089555;28;20032;-76
2023/12/06 01:25:32;;;;;;;8.35;3.47;;;;;;;3.25;74.87;94342.28;5084071;28;20033;-76
2023/12/06 01:27:57;;;;;;;5.30;3.20;;;;;;;3.30;74.76;94337.69;5086105;28;20028;-75
2023/12/06 01:30:23;;;;;;;6.43;3.38;;;;;;;3.08;75.45;94328.72;5085962;28;20430;-76
2023/12/06 01:32:49;;;;;;;5.20;2.90;;;;;;;3.21;75.43;94333.13;5069354;28;20478;-75
2023/12/06 01:35:14;;;;;;;6.00;3.33;;;;;;;3.14;75.63;94337.78;5071586;28;20039;-76
2023/12/06 01:37:40;;;;;;;4.80;2.92;;;;;;;3.19;75.73;94327.25;5090757;28;20074;-75
2023/12/06 01:40:06;;;;;;;4.22;2.45;;;;;;;3.23;75.52;94321.00;5106203;28;20047;-76
2023/12/06 01:42:31;;;;;;;4.85;2.85;;;;;;;3.26;75.37;94318.25;5123435;28;20103;-76
2023/12/06 01:44:57;;;;;;;4.22;2.90;;;;;;;3.06;75.90;94307.47;5073090;28;20037;-76
2023/12/06 01:47:23;;;;;;;4.30;2.80;;;;;;;3.07;76.17;94301.44;5069186;28;20459;-76
2023/12/06 01:49:48;;;;;;;5.57;3.90;;;;;;;2.90;76.76;94299.91;5069304;28;20514;-76
2023/12/06 01:52:14;;;;;;;4.63;2.42;;;;;;;3.04;77.03;94306.75;5069337;28;20487;-76
2023/12/06 01:54:39;;;;;;;5.47;3.13;;;;;;;3.03;77.08;94296.56;5089296;28;20024;-76
2023/12/06 01:57:04;;;;;;;4.35;2.85;;;;;;;3.09;76.34;94291.03;5072491;28;20506;-76
2023/12/06 01:59:30;;;;;;;3.80;2.20;;;;;;;3.27;76.20;94302.75;5089374;28;20039;-76
2023/12/06 02:01:55;;;;;;;4.22;2.70;;;;;;;3.22;76.47;94291.13;5084993;28;20048;-76
2023/12/06 02:04:21;;;;;;;4.28;2.42;;;;;;;3.29;75.83;94285.53;5056068;28;20415;-75
2023/12/06 02:06:46;;;;;;;3.80;2.60;;;;;;;3.28;75.90;94295.88;5056084;28;20040;-76
2023/12/06 02:09:12;;;;;;;4.07;2.55;;;;;;;3.27;75.95;94296.81;5083388;28;20497;-76
2023/12/06 02:11:38;;;;;;;4.10;2.53;;;;;;;3.28;76.08;94294.13;5079086;28;20032;-76
2023/12/06 02:14:03;;;;;;;4.25;2.67;;;;;;;3.32;76.13;94292.22;5055874;28;20060;-76
2023/12/06 02:16:29;;;;;;;4.45;2.75;;;;;;;3.27;76.25;94276.25;5072571;28;20024;-76
2023/12/06 02:18:54;;;;;;;5.20;3.03;;;;;;;3.38;76.39;94288.44;5072522;28;20029;-76
2023/12/06 02:21:19;;;;;;;4.22;2.80;;;;;;;3.36;76.22;94291.91;5074938;28;20081;-76
2023/12/06 02:23:46;;;;;;;4.15;2.53;;;;;;;3.33;76.23;94286.13;5092539;28;20402;-76
2023/12/06 02:26:11;;;;;;;5.85;3.17;;;;;;;2.91;77.20;94252.78;5059004;28;20058;-76
2023/12/06 02:28:36;;;;;;;4.95;3.30;;;;;;;2.99;77.50;94280.53;5090463;28;20044;-75
2023/12/06 02:31:03;;;;;;;4.40;2.70;;;;;;;3.23;77.26;94285.06;5092409;28;20055;-76
2023/12/06 02:33:28;;;;;;;5.03;2.88;;;;;;;3.34;76.61;94282.63;5075567;28;20485;-76
2023/12/06 02:35:56;;;;;;;4.75;2.63;;;;;;;3.35;76.02;94282.56;5092385;28;20055;-76
2023/12/06 02:38:21;;;;;;;5.78;3.88;;;;;;;3.36;76.81;94280.81;5100904;28;20106;-75
2023/12/06 02:40:48;;;;;;;4.97;2.95;;;;;;;3.20;76.35;94278.38;5072028;28;20414;-76
2023/12/06 02:43:16;;;;;;;4.57;2.83;;;;;;;3.34;76.41;94273.22;5055367;28;20029;-76
2023/12/06 02:45:42;;;;;;;4.82;2.88;;;;;;;3.34;76.74;94272.38;5055997;28;20036;-75
2023/12/06 02:48:08;;;;;;;5.43;3.67;;;;;;;3.32;76.87;94269.09;5069317;28;20509;-76
2023/12/06 02:50:33;;;;;;;5.20;3.05;;;;;;;3.26;76.93;94274.59;5092530;28;20020;-76
2023/12/06 02:52:59;;;;;;;4.30;2.67;;;;;;;3.27;76.80;94269.38;5092594;28;20024;-75
2023/12/06 02:55:24;;;;;;;6.50;3.25;;;;;;;3.18;76.82;94261.44;5092467;28;20410;-76
2023/12/06 02:57:49;;;;;;;4.43;2.88;;;;;;;3.35;76.92;94268.91;5072333;28;20024;-76
2023/12/06 03:00:15;;;;;;;4.07;2.65;;;;;;;3.39;76.89;94265.22;5055564;28;20037;-75
2023/12/06 03:02:40;;;;;;;5.28;3.10;;;;;;;3.05;77.01;94231.41;5055515;28;20028;-76
2023/12/06 03:05:06;;;;;;;6.72;3.60;;;;;;;3.15;77.38;94244.50;5074325;28;20039;-75
2023/12/06 03:07:32;;;;;;;6.25;3.60;;;;;;;3.35;77.15;94248.38;5092069;28;20028;-75
2023/12/06 03:09:57;;;;;;;4.53;2.85;;;;;;;3.36;77.06;94253.38;5103827;28;20039;-75
2023/12/06 03:12:22;;;;;;;3.97;2.50;;;;;;;3.37;76.68;94241.38;5111344;28;20551;-75
2023/12/06 03:14:48;;;;;;;4.65;2.47;;;;;;;3.22;76.94;94242.34;5100103;28;20040;-76
2023/12/06 03:17:14;;;;;;;5.22;2.97;;;;;;;3.35;76.60;94238.09;5092188;28;20028;-76
2023/12/06 03:19:39;;;;;;;3.58;2.50;;;;;;;3.52;75.96;94253.25;5092137;28;20032;-75
2023/12/06 03:22:04;;;;;;;5.18;2.78;;;;;;;3.46;76.63;94251.06;5092193;28;20043;-76
2023/12/06 03:24:30;;;;;;;5.88;3.58;;;;;;;3.48;76.61;94253.53;5091118;28;20494;-75
2023/12/06 03:26:55;;;;;;;4.85;3.03;;;;;;;3.43;76.53;94255.59;5074966;28;20028;-75
2023/12/06 03:29:21;;;;;;;10.52;5.65;;;;;;;3.55;76.29;94255.59;5091578;28;20052;-75
2023/12/06 03:31:46;;;;;;;4.45;2.80;;;;;;;3.63;75.56;94247.41;5090207;28;20031;-76
2023/12/06 03:34:12;;;;;;;4.65;2.88;;;;;;;3.64;75.71;94243.09;5091428;28;20478;-75
2023/12/06 03:36:37;;;;;;;4.72;2.53;;;;;;;3.58;75.90;94242.56;5091825;28;20460;-76
2023/12/06 03:39:02;;;;;;;4.00;2.80;;;;;;;3.60;76.46;94241.66;5074711;28;20039;-76
2023/12/06 03:41:28;;;;;;;4.18;2.67;;;;;;;3.78;75.11;94243.03;5085155;28;20454;-75
2023/12/06 03:43:53;;;;;;;3.83;2.55;;;;;;;3.86;75.34;94245.09;5054302;28;20037;-76
2023/12/06 03:46:19;;;;;;;3.58;2.50;;;;;;;3.84;74.89;94240.03;5072470;28;20040;-76
2023/12/06 03:48:44;;;;;;;4.45;2.58;;;;;;;3.97;74.78;94246.03;5054561;28;20037;-76
2023/12/06 03:51:10;;;;;;;4.90;2.45;;;;;;;3.97;74.83;94246.03;5083094;28;20085;-76
2023/12/06 03:53:35;;;;;;;4.90;2.97;;;;;;;3.87;74.77;94229.56;5074121;28;20054;-75
2023/12/06 03:56:00;;;;;;;4.07;2.70;;;;;;;3.93;74.64;94244.59;5092497;28;20024;-76
2023/12/06 03:58:26;;;;;;;5.03;2.80;;;;;;;3.76;75.85;94244.84;5074296;28;20024;-75
2023/12/06 04:00:52;;;;;;;4.72;2.30;;;;;;;3.73;75.31;94247.63;5056521;28;20077;-76
2023/12/06 04:03:19;;;;;;;3.78;2.65;;;;;;;3.56;75.56;94236.69;5089808;28;20484;-75
2023/12/06 04:05:44;;;;;;;4.20;3.20;;;;;;;3.47;76.03;94232.16;5072743;28;20074;-76
2023/12/06 04:08:13;;;;;;;3.95;2.72;;;;;;;3.53;76.01;94226.63;5089103;28;20024;-76
2023/12/06 04:10:38;;;;;;;4.43;3.08;;;;;;;3.66;76.09;94243.81;5107073;28;20043;-76
2023/12/06 04:13:06;;;;;;;3.90;2.67;;;;;;;3.70;76.01;94220.38;5111144;28;20524;-76
2023/12/06 04:15:32;;;;;;;4.55;2.78;;;;;;;3.73;75.50;94225.34;5111861;28;20038;-75
2023/12/06 04:17:57;;;;;;;4.20;2.75;;;;;;;3.36;76.64;94224.31;5076317;28;20024;-76
2023/12/06 04:20:23;;;;;;;3.65;2.50;;;;;;;3.53;76.92;94236.06;5094331;28;20417;-75
2023/12/06 04:22:49;;;;;;;6.13;2.80;;;;;;;3.60;76.16;94209.09;5093909;28;20134;-76
2023/12/06 04:25:14;;;;;;;4.45;2.70;;;;;;;3.80;75.87;94228.34;5093951;28;20076;-76
2023/12/06 04:27:40;;;;;;;6.65;4.22;;;;;;;4.09;75.12;94244.38;5077477;28;20027;-75
2023/12/06 04:30:06;;;;;;;10.38;5.25;;;;;;;3.88;76.12;94238.94;5110836;28;20429;-75
2023/12/06 04:32:31;;;;;;;4.88;3.20;;;;;;;3.92;75.80;94242.13;5076860;28;20028;-76
2023/12/06 04:34:57;;;;;;;4.28;2.83;;;;;;;3.79;75.69;94219.00;5111143;28;20665;-76
2023/12/06 04:37:22;;;;;;;4.72;2.65;;;;;;;3.84;75.93;94240.03;5093787;28;20460;-76
2023/12/06 04:39:48;;;;;;;4.68;2.47;;;;;;;3.78;76.25;94232.75;5090639;28;20067;-76
2023/12/06 04:42:14;;;;;;;4.25;2.50;;;;;;;3.73;76.03;94215.06;5090283;28;20430;-75
2023/12/06 04:44:39;;;;;;;3.55;2.30;;;;;;;3.89;76.27;94243.13;5056977;28;20089;-76
2023/12/06 04:47:05;;;;;;;6.03;3.85;;;;;;;3.83;76.77;94242.72;5090310;28;20028;-76
2023/12/06 04:49:30;;;;;;;5.60;2.45;;;;;;;3.86;77.05;94240.78;5090321;28;20043;-76
2023/12/06 04:51:56;;;;;;;6.15;3.17;;;;;;;3.89;76.74;94229.47;5090170;28;20039;-76
2023/12/06 04:54:23;;;;;;;8.80;4.80;;;;;;;3.78;77.18;94246.41;5090501;28;20074;-76
2023/12/06 04:56:49;;;;;;;11.93;6.60;;;;;;;3.73;77.17;94216.78;5073904;28;20449;-76
2023/12/06 04:59:15;;;;;;;6.57;2.95;;;;;;;3.93;77.39;94236.06;5091346;28;20028;-76
2023/12/06 05:01:41;;;;;;;3.75;2.65;;;;;;;3.93;77.71;94231.75;5071649;28;20047;-76
2023/12/06 05:04:06;;;;;;;4.88;2.33;;;;;;;3.98;77.53;94236.56;5091061;28;20505;-76
2023/12/06 05:06:31;;;;;;;5.18;3.30;;;;;;;4.01;77.47;94234.63;5074268;28;20049;-76
2023/12/06 05:08:57;;;;;;;6.30;4.05;;;;;;;3.80;77.39;94224.00;5073152;28;20383;-76
2023/12/06 05:11:22;;;;;;;6.97;4.63;;;;;;;4.08;77.20;94234.22;5073308;28;20467;-76
2023/12/06 05:13:49;;;;;;;7.18;4.82;;;;;;;4.12;77.01;94233.09;5091448;28;20463;-75
2023/12/06 05:16:15;;;;;;;6.00;3.67;;;;;;;4.16;76.96;94230.22;5075389;28;20141;-76
2023/12/06 05:18:40;;;;;;;6.38;3.20;;;;;;;4.15;76.79;94220.03;5073290;28;20113;-76
2023/12/06 05:21:06;;;;;;;18.45;7.68;;;;;;;4.23;76.89;94228.88;5095776;28;20481;-76
2023/12/06 05:23:31;;;;;;;7.00;3.58;;;;;;;4.16;76.93;94230.22;5099617;28;20040;-76
2023/12/06 05:25:56;;;;;;;6.60;3.40;;;;;;;4.16;76.90;94235.34;5090018;28;20073;-76
2023/12/06 05:28:22;;;;;;;5.15;3.58;;;;;;;4.13;77.05;94227.03;5098947;28;20032;-75
2023/12/06 05:30:47;;;;;;;6.28;3.42;;;;;;;4.00;77.19;94227.84;5084702;28;20122;-75
2023/12/06 05:33:13;;;;;;;6.53;3.20;;;;;;;3.90;78.35;94231.97;5075343;28;20422;-75
2023/12/06 05:35:38;;;;;;;7.45;3.70;;;;;;;3.79;78.58;94206.16;5090398;28;20481;-74
2023/12/06 05:38:04;;;;;;;4.65;2.78;;;;;;;3.86;78.61;94220.22;5076019;28;20047;-75
2023/12/06 05:40:30;;;;;;;9.02;3.97;;;;;;;3.90;78.48;94228.53;5070888;28;20490;-74
2023/12/06 05:42:56;;;;;;;6.47;3.58;;;;;;;3.99;78.60;94215.91;5090135;28;20024;-77
2023/12/06 05:45:21;;;;;;;4.90;3.15;;;;;;;3.91;78.79;94217.34;5075180;28;20504;-75
2023/12/06 05:47:47;;;;;;;5.65;2.80;;;;;;;3.73;80.42;94206.53;5089717;28;20024;-75
2023/12/06 05:50:13;;;;;;;4.55;3.95;;;;;;;3.84;80.17;94219.47;5071076;28;20032;-75
2023/12/06 05:52:38;;;;;;;5.32;3.50;;;;;;;3.87;80.19;94219.28;5089410;27;20544;-75
2023/12/06 05:55:05;;;;;;;3.95;2.83;;;;;;;3.66;80.81;94179.59;5074045;28;20036;-74
2023/12/06 05:57:31;;;;;;;4.53;2.92;;;;;;;4.12;80.27;94225.38;5072281;28;20036;-75
2023/12/06 06:00:00;;;;;;;5.93;3.17;;;;;;;4.27;79.56;94226.94;5070573;28;20048;-76
2023/12/06 06:02:25;;;;;;;4.50;3.00;;;;;;;4.36;79.63;94231.44;5080803;28;20058;-76
2023/12/06 06:04:51;;;;;;;4.30;2.80;;;;;;;4.39;79.86;94232.97;5077756;28;20040;-75
2023/12/06 06:07:16;;;;;;;3.97;2.47;;;;;;;4.30;79.65;94211.28;5090943;28;20031;-75
2023/12/06 06:09:42;;;;;;;7.78;2.85;;;;;;;4.53;79.34;94226.91;5089241;28;20036;-75
2023/12/06 06:12:07;;;;;;;4.50;3.08;;;;;;;4.58;79.10;94235.94;5072211;28;20024;-75
2023/12/06 06:14:33;;;;;;;4.65;2.83;;;;;;;4.35;79.24;94201.50;5089203;28;20036;-75
2023/12/06 06:16:59;;;;;;;5.30;2.40;;;;;;;4.67;79.22;94237.06;5072493;28;20036;-75
2023/12/06 06:19:24;;;;;;;3.95;2.70;;;;;;;4.54;79.46;94238.81;5070091;28;20047;-75
2023/12/06 06:21:50;;;;;;;4.80;2.45;;;;;;;4.48;79.85;94240.06;5057225;28;20052;-75
2023/12/06 06:24:15;;;;;;;3.53;2.58;;;;;;;4.64;79.65;94242.41;5105663;27;20418;-75
2023/12/06 06:26:41;;;;;;;4.00;2.53;;;;;;;4.58;79.00;94229.97;5090130;28;20549;-75
2023/12/06 06:29:07;;;;;;;4.32;2.67;;;;;;;4.34;78.84;94199.84;5070576;28;20867;-75
2023/12/06 06:31:33;;;;;;;6.15;2.70;;;;;;;4.52;79.20;94240.69;5074143;28;20046;-75
2023/12/06 06:34:01;;;;;;;5.55;3.08;;;;;;;4.36;78.89;94225.47;5072753;28;20064;-75
2023/12/06 06:36:27;;;;;;;5.97;3.08;;;;;;;4.30;79.21;94231.03;5056191;28;20035;-75
2023/12/06 06:38:52;;;;;;;6.40;4.47;;;;;;;4.25;79.71;94233.91;5104327;27;20447;-75
2023/12/06 06:41:18;;;;;;;4.10;2.80;;;;;;;4.16;80.30;94240.50;5071476;28;20035;-75
2023/12/06 06:43:43;;;;;;;5.32;3.20;;;;;;;4.06;80.53;94242.03;5088644;28;20506;-75
2023/12/06 06:46:09;;;;;;;5.10;3.10;;;;;;;4.10;80.97;94235.78;5071712;28;20032;-75
2023/12/06 06:48:34;;;;;;;4.75;2.85;;;;;;;4.07;81.16;94238.56;5087874;28;20505;-75
2023/12/06 06:50:59;;;;;;;5.25;2.97;;;;;;;4.00;81.63;94235.53;5088797;28;20031;-75
2023/12/06 06:53:25;;;;;;;4.47;3.13;;;;;;;3.98;81.69;94237.41;5090551;28;20098;-75
2023/12/06 06:55:50;;;;;;;5.40;3.53;;;;;;;4.00;82.17;94234.72;5073678;28;20029;-75
2023/12/06 06:58:16;;;;;;;5.45;3.22;;;;;;;3.96;81.82;94244.41;5089338;28;20028;-75
2023/12/06 07:00:41;;;;;;;5.30;3.13;;;;;;;3.96;82.21;94231.53;5087656;28;20039;-75
2023/12/06 07:03:07;;;;;;;5.43;3.55;;;;;;;3.97;82.38;94237.50;5073467;28;20035;-75
2023/12/06 07:05:33;;;;;;;5.93;3.47;;;;;;;3.90;82.30;94223.41;5091780;28;20028;-74
2023/12/06 07:07:59;;;;;;;4.35;2.75;;;;;;;4.03;81.89;94235.34;5089347;28;20091;-75
2023/12/06 07:10:24;;;;;;;5.72;2.63;;;;;;;4.02;81.46;94238.03;5086987;28;20036;-75
2023/12/06 07:12:50;;;;;;;5.85;3.15;;;;;;;3.96;81.14;94235.88;5088332;28;20028;-74
2023/12/06 07:15:15;;;;;;;5.10;2.95;;;;;;;4.06;81.50;94238.63;5071921;28;20066;-74
2023/12/06 07:17:44;;;;;;;8.52;5.50;;;;;;;4.08;82.05;94223.94;5089608;28;20051;-74
2023/12/06 07:20:13;;;;;;;6.40;3.67;;;;;;;4.17;82.80;94237.00;5056175;28;20170;-75
2023/12/06 07:22:39;;;;;;;6.97;4.13;;;;;;;4.12;82.81;94233.09;5089398;28;20458;-74
2023/12/06 07:25:05;;;;;;;8.52;6.20;;;;;;;4.24;82.64;94237.41;5087461;28;20078;-74
2023/12/06 07:27:31;;;;;;;5.97;3.92;;;;;;;4.19;81.77;94224.03;5070906;28;20035;-74
2023/12/06 07:29:56;;;;;;;6.50;3.60;;;;;;;4.19;82.14;94239.47;5089114;28;20052;-74
2023/12/06 07:32:22;;;;;;;7.88;4.25;;;;;;;4.18;82.75;94242.94;5087809;28;20028;-74
2023/12/06 07:34:48;;;;;;;7.55;5.05;;;;;;;4.03;83.51;94243.03;5087107;28;20040;-74
2023/12/06 07:37:13;;;;;;;6.72;4.78;;;;;;;4.06;84.50;94244.59;5086477;28;20055;-74
2023/12/06 07:39:39;;;;;;;6.03;4.13;;;;;;;4.08;84.64;94249.66;5086787;28;20107;-73
2023/12/06 07:42:04;;;;;;;7.38;4.53;;;;;;;4.05;84.36;94237.00;5108461;27;20496;-73
2023/12/06 07:44:30;;;;;;;8.35;4.82;;;;;;;4.14;84.71;94244.09;5070311;28;20039;-74
2023/12/06 07:46:55;;;;;;;8.52;5.15;;;;;;;4.00;84.62;94232.97;5077719;28;20024;-73
2023/12/06 07:49:20;;;;;;;8.55;4.68;;;;;;;4.12;84.80;94262.19;5085539;28;20566;-73
2023/12/06 07:51:46;;;;;;;6.93;3.67;;;;;;;3.93;84.72;94231.75;5089459;28;20459;-74
2023/12/06 07:54:11;;;;;;;6.55;4.28;;;;;;;4.06;84.07;94249.72;5054650;28;20562;-74
2023/12/06 07:56:37;;;;;;;8.30;4.97;;;;;;;4.00;83.09;94237.28;5098645;28;20045;-73
2023/12/06 07:59:02;;;;;;;7.70;4.57;;;;;;;4.11;84.26;94250.25;5101616;28;20048;-73
2023/12/06 08:01:31;;;;;;;7.32;4.10;;;;;;;3.98;84.76;94252.00;5092145;28;20032;-73
2023/12/06 08:04:00;;;;;;;7.57;4.20;;;;;;;3.97;85.44;94246.03;5092117;28;20088;-73
2023/12/06 08:06:26;;;;;;;6.00;4.28;;;;;;;4.20;85.52;94256.53;5071420;28;20083;-73
2023/12/06 08:08:53;;;;;;;5.78;4.30;;;;;;;4.14;84.99;94249.22;5079413;28;20035;-73
2023/12/06 08:11:19;;;;;;;7.97;5.10;;;;;;;4.07;85.43;94247.97;5079534;28;20028;-73
2023/12/06 08:13:44;;;;;;;6.88;4.32;;;;;;;4.07;85.26;94250.56;5058104;28;20919;-73
2023/12/06 08:16:10;;;;;;;6.35;4.30;;;;;;;3.82;85.51;94211.06;5048130;28;20383;-74
2023/12/06 08:18:35;;;;;;;5.30;3.65;;;;;;;3.94;85.71;94251.38;5089807;28;20535;-74
2023/12/06 08:21:03;;;;;;;6.38;3.92;;;;;;;4.03;86.13;94255.91;5090341;28;20052;-74
2023/12/06 08:23:28;;;;;;;7.28;5.03;;;;;;;4.01;86.08;94256.91;5068952;28;20160;-72
2023/12/06 08:25:54;;;;;;;7.55;4.07;;;;;;;4.01;85.45;94250.06;5081634;28;20032;-73
2023/12/06 08:28:19;;;;;;;5.10;3.50;;;;;;;4.03;85.90;94262.78;5107382;27;20031;-74
2023/12/06 08:30:45;;;;;;;6.25;3.75;;;;;;;4.01;86.18;94254.34;5107114;28;20059;-74
2023/12/06 08:33:13;;;;;;;10.23;4.38;;;;;;;4.15;86.16;94259.44;5088988;28;20074;-74
2023/12/06 08:35:39;;;;;;;8.15;6.60;;;;;;;4.18;85.58;94241.22;5069810;28;20036;-74
2023/12/06 08:38:05;;;;;;;9.93;6.45;;;;;;;4.27;85.31;94252.63;5077135;28;20039;-74
2023/12/06 08:40:31;;;;;;;8.50;5.75;;;;;;;4.25;85.61;94249.34;5123443;27;20482;-74
2023/12/06 08:42:57;;;;;;;9.25;4.90;;;;;;;4.13;85.49;94239.88;5089712;28;20020;-74
2023/12/06 08:45:22;;;;;;;10.00;6.07;;;;;;;4.24;85.66;94240.81;5107030;28;20028;-74
2023/12/06 08:47:48;;;;;;;10.43;5.70;;;;;;;4.12;86.23;94235.66;5090008;28;20035;-75
2023/12/06 08:50:14;;;;;;;16.80;7.43;;;;;;;4.14;86.56;94247.47;5089279;28;20525;-72
2023/12/06 08:52:42;;;;;;;12.45;6.60;;;;;;;4.19;86.39;94244.63;5073599;28;20050;-75
2023/12/06 08:55:07;;;;;;;12.18;6.68;;;;;;;4.20;86.20;94229.06;5123201;27;20093;-74
2023/12/06 08:57:33;;;;;;;7.80;4.72;;;;;;;4.13;85.85;94240.72;5089026;28;20028;-73
2023/12/06 08:59:58;;;;;;;7.13;4.95;;;;;;;4.03;86.33;94240.47;5089994;28;20032;-74
2023/12/06 09:02:24;;;;;;;6.82;4.28;;;;;;;3.99;87.04;94239.03;5056461;28;20046;-74
2023/12/06 09:04:51;;;;;;;8.23;5.20;;;;;;;4.04;87.30;94218.19;5091342;28;20065;-73
2023/12/06 09:07:17;;;;;;;7.03;4.60;;;;;;;4.13;86.87;94225.28;5072874;28;20016;-74
2023/12/06 09:09:45;;;;;;;7.38;4.70;;;;;;;4.10;87.39;94220.34;5089277;28;20039;-74
2023/12/06 09:12:11;;;;;;;7.78;4.65;;;;;;;4.17;87.24;94234.41;5072803;28;20028;-74
2023/12/06 09:14:36;;;;;;;8.73;4.45;;;;;;;4.12;86.68;94215.09;5089616;28;20413;-74
2023/12/06 09:17:02;;;;;;;9.57;7.13;;;;;;;4.25;87.14;94210.78;5072811;28;20035;-73
2023/12/06 09:19:27;;;;;;;6.93;4.55;;;;;;;4.24;86.59;94222.00;5089440;28;20127;-73
2023/12/06 09:21:52;;;;;;;8.82;5.30;;;;;;;4.17;87.25;94218.19;5090816;28;20028;-73
2023/12/06 09:24:18;;;;;;;10.45;5.93;;;;;;;4.21;86.81;94212.72;5072874;28;20036;-73
2023/12/06 09:26:44;;;;;;;7.28;5.40;;;;;;;4.28;86.84;94218.28;5106395;28;20416;-73
2023/12/06 09:29:09;;;;;;;10.77;6.70;;;;;;;4.31;86.57;94215.50;5089410;28;20048;-73
2023/12/06 09:31:35;;;;;;;9.48;6.97;;;;;;;4.36;86.55;94210.88;5089573;28;20111;-74
2023/12/06 09:34:01;;;;;;;6.47;4.72;;;;;;;4.36;85.93;94203.16;5089578;28;20489;-73
2023/12/06 09:36:27;;;;;;;7.53;5.38;;;;;;;4.29;86.01;94201.94;5089583;28;20031;-73
2023/12/06 09:38:54;;;;;;;6.20;4.63;;;;;;;4.20;84.76;94179.41;5089443;28;20033;-73
2023/12/06 09:41:20;;;;;;;5.30;2.60;;;;;;;4.38;83.75;94192.78;5090642;28;20039;-73
2023/12/06 09:43:45;;;;;;;3.83;2.70;;;;;;;4.62;81.82;94201.34;5072345;28;20028;-73
2023/12/06 09:46:13;;;;;;;3.80;2.63;;;;;;;4.67;81.90;94193.31;5072913;28;20036;-74
2023/12/06 09:48:38;;;;;;;4.65;2.97;;;;;;;4.67;82.37;94201.03;5072618;28;20029;-73
2023/12/06 09:51:04;;;;;;;4.55;2.60;;;;;;;4.55;82.54;94177.00;5089411;28;20032;-72
2023/12/06 09:53:29;;;;;;;3.90;2.47;;;;;;;4.61;82.30;94186.03;5072762;28;20035;-74
2023/12/06 09:55:55;;;;;;;4.43;2.92;;;;;;;4.63;81.81;94158.47;5089304;28;20032;-73
2023/12/06 09:58:20;;;;;;;5.63;3.88;;;;;;;4.80;81.81;94173.53;5072476;28;20021;-73
2023/12/06 10:00:45;;;;;;;4.82;3.10;;;;;;;4.53;81.27;94183.16;5072260;28;20421;-73
2023/12/06 10:03:13;;;;;;;6.68;3.03;;;;;;;4.70;81.89;94181.06;5089229;28;20021;-73
2023/12/06 10:05:40;;;;;;;4.28;2.90;;;;;;;4.67;81.75;94188.19;5072551;28;20420;-72
2023/12/06 10:08:05;;;;;;;3.85;2.40;;;;;;;4.56;80.68;94173.47;5105884;28;20032;-73
2023/12/06 10:10:31;;;;;;;3.60;2.03;;;;;;;4.53;80.62;94176.28;5088864;28;20478;-72
2023/12/06 10:12:56;;;;;;;4.00;2.53;;;;;;;4.56;82.36;94164.94;5072334;28;20031;-73
2023/12/06 10:15:22;;;;;;;5.45;3.40;;;;;;;4.46;83.54;94154.50;5072334;28;20482;-72
2023/12/06 10:17:47;;;;;;;6.40;2.63;;;;;;;4.60;83.04;94166.41;5072155;28;20437;-73
2023/12/06 10:20:13;;;;;;;3.05;2.10;;;;;;;4.60;79.61;94164.63;5089253;28;20030;-72
2023/12/06 10:22:39;;;;;;;4.50;2.90;;;;;;;4.50;82.34;94158.47;5091437;28;20414;-72
2023/12/06 10:25:11;;;;;;;4.30;2.88;;;;;;;4.46;82.68;94149.34;5085959;28;20085;-72
2023/12/06 10:27:36;;;;;;;3.35;2.20;;;;;;;4.53;81.51;94147.16;5065368;28;20537;-73
2023/12/06 10:30:03;;;;;;;3.42;2.58;;;;;;;4.72;80.73;94155.22;5075676;28;20118;-74
2023/12/06 10:32:29;;;;;;;4.05;2.40;;;;;;;4.73;81.32;94158.63;5092666;28;20028;-74
2023/12/06 10:34:55;;;;;;;20.73;11.48;;;;;;;4.69;80.51;94145.16;5092783;28;20032;-74
2023/12/06 10:37:21;;;;;;;4.05;2.50;;;;;;;4.67;79.79;94137.53;5075731;28;20032;-73
2023/12/06 10:39:50;;;;;;;3.50;2.20;;;;;;;4.73;79.82;94156.88;5075528;28;20611;-74
2023/12/06 10:42:19;;;;;;;2.75;1.85;;;;;;;4.80;79.57;94152.13;5058976;28;20509;-73
2023/12/06 10:44:45;;;;;;;2.05;1.52;;;;;;;4.69;80.94;94147.72;5075792;28;20127;-74
2023/12/06 10:47:11;;;;;;;2.80;1.88;;;;;;;4.63;80.24;94138.69;5058806;28;20020;-73
2023/12/06 10:49:37;;;;;;;3.13;1.80;;;;;;;4.72;80.67;94141.56;5092273;28;20038;-73
2023/12/06 10:52:05;;;;;;;3.15;1.95;;;;;;;4.79;81.61;94148.75;5075400;28;20028;-74
2023/12/06 10:54:31;;;;;;;3.88;2.67;;;;;;;4.85;81.75;94145.72;5075782;28;20032;-73
2023/12/06 10:56:56;;;;;;;4.55;3.42;;;;;;;4.69;80.97;94142.59;5092204;28;20386;-73
2023/12/06 10:59:25;;;;;;;5.60;3.65;;;;;;;4.62;82.08;94136.22;5075254;28;20035;-72
2023/12/06 11:01:57;;;;;;;6.97;4.80;;;;;;;4.79;81.82;94138.44;5091932;28;20405;-73
2023/12/06 11:04:27;;;;;;;6.82;5.30;;;;;;;4.76;82.32;94130.09;5091996;28;20032;-72
2023/12/06 11:06:58;;;;;;;7.47;4.60;;;;;;;4.64;82.93;94136.94;5058374;28;20063;-71
2023/12/06 11:09:35;;;;;;;6.13;3.92;;;;;;;4.67;84.19;94131.56;5092921;28;20393;-72
2023/12/06 11:12:10;;;;;;;3.10;2.33;;;;;;;4.64;83.03;94131.78;5039921;28;20497;-72
2023/12/06 11:14:59;;;;;;;4.70;3.20;;;;;;;4.69;83.54;94127.97;5072612;28;20515;-72
2023/12/06 11:18:03;;;;;;;4.22;2.65;;;;;;;4.67;82.78;94131.56;5072774;28;20020;-73
2023/12/06 11:20:29;;;;;;;4.50;2.85;;;;;;;4.68;84.21;94130.63;5078259;28;20127;-73
2023/12/06 11:22:56;;;;;;;5.20;3.35;;;;;;;4.55;84.44;94122.16;5058282;28;20074;-73
2023/12/06 11:25:21;;;;;;;4.72;3.13;;;;;;;4.61;84.18;94132.00;5074799;28;20055;-71
2023/12/06 11:27:48;;;;;;;3.65;2.45;;;;;;;4.58;83.76;94133.03;5091502;28;20066;-72
2023/12/06 11:30:17;;;;;;;3.42;1.70;;;;;;;4.57;82.99;94125.41;5091236;28;20085;-73
2023/12/06 11:32:43;;;;;;;3.00;2.22;;;;;;;4.58;84.72;94127.91;5073802;28;20073;-73
2023/12/06 11:35:09;;;;;;;3.13;1.95;;;;;;;4.59;83.46;94126.16;5069927;28;20043;-72